Time;durP1;ratioP1;P1;durP2;ratioP2;P2;SDS_P1;SDS_P2;PMS_P1;PMS_P2;Temp;Humidity;BMP_temperature;BMP_pressure;BME280_temperature;BME280_humidity;BME280_pressure;Samples;Min_cycle;Max_cycle;Signal;HPM_P1;HPM_P2
2023/08/01 00:01:37;;;;;;;9.90;7.50;;;;;;;-140.66;100.00;55571.53;5105244;28;20039;-74
2023/08/01 00:04:23;;;;;;;8.75;7.32;;;;;;;-140.66;100.00;55571.53;5104802;28;20056;-73
2023/08/01 00:07:09;;;;;;;9.25;7.57;;;;;;;-140.66;100.00;55571.53;5104242;28;20028;-73
2023/08/01 00:09:54;;;;;;;10.40;7.57;;;;;;;-140.66;100.00;55571.53;5106160;28;20024;-73
2023/08/01 00:12:40;;;;;;;8.63;7.47;;;;;;;-140.66;100.00;55571.53;5101079;28;20034;-75
2023/08/01 00:15:26;;;;;;;8.88;7.50;;;;;;;-140.66;100.00;55571.53;5096177;28;20111;-74
2023/08/01 00:18:11;;;;;;;9.52;7.50;;;;;;;-140.66;100.00;55571.53;5095302;28;20085;-76
2023/08/01 00:20:58;;;;;;;9.05;7.03;;;;;;;-140.66;100.00;55571.53;5099164;28;20035;-74
2023/08/01 00:23:44;;;;;;;8.45;7.13;;;;;;;-140.66;100.00;55571.53;5097433;28;20032;-73
2023/08/01 00:26:30;;;;;;;7.90;6.80;;;;;;;-140.66;100.00;55571.53;5096168;28;20125;-74
2023/08/01 00:29:15;;;;;;;8.07;7.25;;;;;;;-140.66;100.00;55571.53;5097880;28;20166;-74
2023/08/01 00:32:01;;;;;;;8.20;7.40;;;;;;;-140.66;100.00;55571.53;5079791;28;20506;-75
2023/08/01 00:34:49;;;;;;;8.50;7.32;;;;;;;-140.66;100.00;55571.53;5080513;28;20486;-73
2023/08/01 00:37:35;;;;;;;16.50;7.75;;;;;;;-140.66;100.00;55571.53;5080167;28;20039;-74
2023/08/01 00:40:21;;;;;;;10.82;7.15;;;;;;;-140.66;100.00;55571.53;5096612;28;20437;-74
2023/08/01 00:43:07;;;;;;;9.57;8.45;;;;;;;-140.66;100.00;55571.53;5098271;28;20024;-75
2023/08/01 00:45:58;;;;;;;9.43;7.82;;;;;;;-140.66;100.00;55571.53;5097524;28;20024;-74
2023/08/01 00:48:44;;;;;;;11.98;7.78;;;;;;;-140.66;100.00;55571.53;5097751;28;20079;-74
2023/08/01 00:51:32;;;;;;;9.13;7.38;;;;;;;-140.66;100.00;55571.53;5084296;28;20074;-74
2023/08/01 00:54:18;;;;;;;9.23;7.25;;;;;;;-140.66;100.00;55571.53;5098600;28;20063;-74
2023/08/01 00:57:05;;;;;;;8.60;7.65;;;;;;;-140.66;100.00;55571.53;5097386;28;20024;-73
2023/08/01 00:59:50;;;;;;;8.90;7.65;;;;;;;-140.66;100.00;55571.53;5098983;28;20054;-73
2023/08/01 01:02:37;;;;;;;10.32;7.20;;;;;;;-140.66;100.00;55571.53;5097943;28;20028;-75
2023/08/01 01:05:24;;;;;;;10.15;7.63;;;;;;;-140.66;100.00;55571.53;5097652;28;20039;-73
2023/08/01 01:08:11;;;;;;;9.00;7.70;;;;;;;-140.66;100.00;55571.53;5097195;28;20027;-73
2023/08/01 01:10:56;;;;;;;10.27;7.50;;;;;;;-140.66;100.00;55571.53;5097338;28;20085;-73
2023/08/01 01:13:42;;;;;;;10.52;8.05;;;;;;;-140.66;100.00;55571.53;5097997;28;20032;-74
2023/08/01 01:16:28;;;;;;;9.65;8.32;;;;;;;-140.66;100.00;55571.53;5082585;28;20031;-73
2023/08/01 01:19:13;;;;;;;10.80;8.13;;;;;;;-140.66;100.00;55571.53;5098524;28;20050;-72
2023/08/01 01:21:59;;;;;;;10.13;8.77;;;;;;;-140.66;100.00;55571.53;5089829;28;20063;-75
2023/08/01 01:24:47;;;;;;;14.73;9.45;;;;;;;-140.66;100.00;55571.53;5096694;28;20024;-74
2023/08/01 01:27:35;;;;;;;10.05;9.02;;;;;;;-140.66;100.00;55571.53;5082835;28;20107;-74
2023/08/01 01:30:22;;;;;;;12.38;9.18;;;;;;;-140.66;100.00;55571.53;5097057;28;20032;-74
2023/08/01 01:33:09;;;;;;;9.65;8.27;;;;;;;-140.66;100.00;55571.53;5097134;28;20107;-74
2023/08/01 01:35:55;;;;;;;11.98;8.40;;;;;;;-140.66;100.00;55571.53;5082475;28;20027;-73
2023/08/01 01:38:40;;;;;;;10.57;8.85;;;;;;;-140.66;100.00;55571.53;5101115;28;20066;-72
2023/08/01 01:41:26;;;;;;;10.07;8.80;;;;;;;-140.66;100.00;55571.53;5099685;28;20032;-73
2023/08/01 01:44:12;;;;;;;12.85;10.13;;;;;;;-140.66;100.00;55571.53;5082381;28;20031;-73
2023/08/01 01:46:58;;;;;;;10.30;9.02;;;;;;;-140.66;100.00;55571.53;5097187;28;20500;-74
2023/08/01 01:49:43;;;;;;;11.23;9.35;;;;;;;-140.66;100.00;55571.53;5095981;28;20418;-74
2023/08/01 01:52:29;;;;;;;12.98;9.45;;;;;;;-140.66;100.00;55571.53;5096283;28;20383;-74
2023/08/01 01:55:15;;;;;;;15.77;10.18;;;;;;;-140.66;100.00;55571.53;5096179;28;20391;-73
2023/08/01 01:58:03;;;;;;;12.40;9.63;;;;;;;-140.66;100.00;55571.53;5096049;28;20038;-74
2023/08/01 02:00:49;;;;;;;10.32;9.32;;;;;;;-140.66;100.00;55571.53;5095335;28;20050;-73
2023/08/01 02:03:35;;;;;;;10.90;9.43;;;;;;;-140.66;100.00;55571.53;5095310;28;20115;-73
2023/08/01 02:06:21;;;;;;;11.82;9.57;;;;;;;-140.66;100.00;55571.53;5096449;28;20032;-74
2023/08/01 02:09:08;;;;;;;10.63;9.15;;;;;;;-140.66;100.00;55571.53;5082832;28;20432;-74
2023/08/01 02:11:54;;;;;;;11.52;9.43;;;;;;;-140.66;100.00;55571.53;5094379;28;20032;-73
2023/08/01 02:14:40;;;;;;;12.60;10.07;;;;;;;-140.66;100.00;55571.53;5095337;28;20028;-74
2023/08/01 02:17:26;;;;;;;10.68;9.57;;;;;;;-140.66;100.00;55571.53;5094718;28;20170;-73
2023/08/01 02:20:11;;;;;;;12.23;9.75;;;;;;;-140.66;100.00;55571.53;5081505;28;20044;-74
2023/08/01 02:22:57;;;;;;;12.00;10.80;;;;;;;-140.66;100.00;55571.53;5096210;28;20446;-74
2023/08/01 02:25:43;;;;;;;14.70;10.35;;;;;;;-140.66;100.00;55571.53;5080542;28;20444;-73
2023/08/01 02:28:29;;;;;;;13.88;10.23;;;;;;;-140.66;100.00;55571.53;5095179;28;20451;-73
2023/08/01 02:31:15;;;;;;;12.82;10.40;;;;;;;-140.66;100.00;55571.53;5079926;28;20098;-74
2023/08/01 02:34:01;;;;;;;11.48;10.38;;;;;;;-140.66;100.00;55571.53;5095252;28;20081;-74
2023/08/01 02:36:47;;;;;;;11.38;10.18;;;;;;;-140.66;100.00;55571.53;5095018;28;20092;-75
2023/08/01 02:39:33;;;;;;;13.82;11.13;;;;;;;-140.66;100.00;55571.53;5094182;28;20023;-73
2023/08/01 02:42:18;;;;;;;13.45;11.23;;;;;;;-140.66;100.00;55571.53;5080979;28;20020;-74
2023/08/01 02:45:05;;;;;;;13.18;10.45;;;;;;;-140.66;100.00;55571.53;5095569;28;20040;-74
2023/08/01 02:47:50;;;;;;;13.88;11.13;;;;;;;-140.66;100.00;55571.53;5080032;28;20515;-73
2023/08/01 02:50:36;;;;;;;13.82;11.57;;;;;;;-140.66;100.00;55571.53;5095065;28;20434;-75
2023/08/01 02:53:22;;;;;;;11.88;10.63;;;;;;;-140.66;100.00;55571.53;5080826;28;20032;-75
2023/08/01 02:56:09;;;;;;;15.45;10.18;;;;;;;-140.66;100.00;55571.53;5079425;28;20139;-73
2023/08/01 02:58:55;;;;;;;14.35;11.52;;;;;;;-140.66;100.00;55571.53;5079932;28;20028;-73
2023/08/01 03:01:41;;;;;;;14.20;11.30;;;;;;;-140.66;100.00;55571.53;5078762;28;20036;-74
2023/08/01 03:04:27;;;;;;;13.10;10.75;;;;;;;-140.66;100.00;55571.53;5094351;28;20502;-73
2023/08/01 03:07:13;;;;;;;14.52;10.45;;;;;;;-140.66;100.00;55571.53;5095405;28;20442;-74
2023/08/01 03:09:59;;;;;;;12.50;11.20;;;;;;;-140.66;100.00;55571.53;5093937;28;20399;-73
2023/08/01 03:12:44;;;;;;;13.45;10.65;;;;;;;-140.66;100.00;55571.53;5079633;28;20020;-74
2023/08/01 03:15:30;;;;;;;12.88;10.70;;;;;;;-140.66;100.00;55571.53;5079885;28;20016;-74
2023/08/01 03:18:16;;;;;;;11.65;10.38;;;;;;;-140.66;100.00;55571.53;5079276;28;20042;-74
2023/08/01 03:21:03;;;;;;;12.85;9.70;;;;;;;-140.66;100.00;55571.53;5079438;28;20035;-77
2023/08/01 03:23:50;;;;;;;12.32;10.35;;;;;;;-140.66;100.00;55571.53;5081292;28;20113;-75
2023/08/01 03:26:36;;;;;;;11.10;9.80;;;;;;;-140.66;100.00;55571.53;5094245;28;20027;-73
2023/08/01 03:29:22;;;;;;;13.00;9.80;;;;;;;-140.66;100.00;55571.53;5094209;28;20043;-74
2023/08/01 03:32:08;;;;;;;17.20;10.20;;;;;;;-140.66;100.00;55571.53;5093780;28;20020;-75
2023/08/01 03:34:53;;;;;;;13.00;10.02;;;;;;;-140.66;100.00;55571.53;5094067;28;20119;-74
2023/08/01 03:37:40;;;;;;;13.90;9.52;;;;;;;-140.66;100.00;55571.53;5093847;28;20027;-73
2023/08/01 03:40:26;;;;;;;20.05;10.95;;;;;;;-140.66;100.00;55571.53;5094343;28;20032;-73
2023/08/01 03:43:12;;;;;;;11.35;9.98;;;;;;;-140.66;100.00;55571.53;5094322;28;20476;-74
2023/08/01 03:45:58;;;;;;;15.27;10.48;;;;;;;-140.66;100.00;55571.53;5094308;28;20043;-73
2023/08/01 03:48:43;;;;;;;11.90;9.93;;;;;;;-140.66;100.00;55571.53;5093836;28;20467;-73
2023/08/01 03:51:29;;;;;;;12.35;10.07;;;;;;;-140.66;100.00;55571.53;5079781;28;20036;-74
2023/08/01 03:54:15;;;;;;;14.05;10.20;;;;;;;-140.66;100.00;55571.53;5094362;28;20020;-74
2023/08/01 03:57:02;;;;;;;16.15;10.55;;;;;;;-140.66;100.00;55571.53;5094592;28;20039;-74
2023/08/01 03:59:48;;;;;;;16.55;10.93;;;;;;;-140.66;100.00;55571.53;5094381;28;20122;-74
2023/08/01 04:02:33;;;;;;;16.92;10.75;;;;;;;-140.66;100.00;55571.53;5078542;28;20165;-74
2023/08/01 04:05:19;;;;;;;12.73;10.55;;;;;;;-140.66;100.00;55571.53;5078875;28;20035;-74
2023/08/01 04:08:05;;;;;;;12.73;10.68;;;;;;;-140.66;100.00;55571.53;5094305;28;20024;-75
2023/08/01 04:10:50;;;;;;;11.25;10.02;;;;;;;-140.66;100.00;55571.53;5094757;28;20414;-74
2023/08/01 04:13:36;;;;;;;14.25;10.43;;;;;;;-140.66;100.00;55571.53;5079485;28;20024;-75
2023/08/01 04:16:22;;;;;;;17.83;11.32;;;;;;;-140.66;100.00;55571.53;5098200;28;20502;-74
2023/08/01 04:19:08;;;;;;;14.30;11.90;;;;;;;-140.66;100.00;55571.53;5097793;28;20396;-75
2023/08/01 04:21:56;;;;;;;17.27;11.52;;;;;;;-140.66;100.00;55571.53;5082273;28;20076;-73
2023/08/01 04:24:42;;;;;;;16.75;11.55;;;;;;;-140.66;100.00;55571.53;5098332;28;20020;-74
2023/08/01 04:27:27;;;;;;;15.77;11.15;;;;;;;-140.66;100.00;55571.53;5084256;28;20031;-73
2023/08/01 04:30:13;;;;;;;13.25;11.40;;;;;;;-140.66;100.00;55571.53;5098262;28;20097;-73
2023/08/01 04:32:59;;;;;;;13.70;11.55;;;;;;;-140.66;100.00;55571.53;5097744;28;20043;-74
2023/08/01 04:35:44;;;;;;;15.40;11.50;;;;;;;-140.66;100.00;55571.53;5097599;28;20031;-74
2023/08/01 04:38:30;;;;;;;12.88;10.38;;;;;;;-140.66;100.00;55571.53;5082319;28;20110;-74
2023/08/01 04:41:16;;;;;;;13.85;10.75;;;;;;;-140.66;100.00;55571.53;5096610;28;20024;-73
2023/08/01 04:44:01;;;;;;;16.08;11.13;;;;;;;-140.66;100.00;55571.53;5096688;28;20055;-74
2023/08/01 04:46:48;;;;;;;13.20;10.63;;;;;;;-140.66;100.00;55571.53;5098497;28;20032;-74
2023/08/01 04:49:34;;;;;;;14.05;11.00;;;;;;;-140.66;100.00;55571.53;5098651;28;20359;-74
2023/08/01 04:52:20;;;;;;;22.58;12.90;;;;;;;-140.66;100.00;55571.53;5097335;28;20437;-74
2023/08/01 04:55:06;;;;;;;17.17;13.18;;;;;;;-140.66;100.00;55571.53;5097109;28;20368;-75
2023/08/01 04:57:52;;;;;;;13.85;11.82;;;;;;;-140.66;100.00;55571.53;5098178;28;20504;-74
2023/08/01 05:00:40;;;;;;;13.30;11.30;;;;;;;-140.66;100.00;55571.53;5097043;28;20039;-74
2023/08/01 05:03:26;;;;;;;14.48;11.73;;;;;;;-140.66;100.00;55571.53;5081502;28;20024;-75
2023/08/01 05:06:11;;;;;;;16.10;12.48;;;;;;;-140.66;100.00;55571.53;5082661;28;20031;-74
2023/08/01 05:08:57;;;;;;;17.67;12.48;;;;;;;-140.66;100.00;55571.53;5084017;28;20024;-75
2023/08/01 05:11:43;;;;;;;16.58;12.82;;;;;;;-140.66;100.00;55571.53;5097174;28;20040;-74
2023/08/01 05:14:28;;;;;;;17.70;13.77;;;;;;;-140.66;100.00;55571.53;5100789;28;20102;-73
2023/08/01 05:17:15;;;;;;;15.82;12.70;;;;;;;-140.66;100.00;55571.53;5100089;28;20067;-74
2023/08/01 05:20:03;;;;;;;21.17;14.30;;;;;;;-140.66;100.00;55571.53;5100519;28;20044;-73
2023/08/01 05:22:49;;;;;;;20.10;14.00;;;;;;;-140.66;100.00;55571.53;5099994;28;20041;-73
2023/08/01 05:25:35;;;;;;;17.75;14.05;;;;;;;-140.66;100.00;55571.53;5101148;28;20020;-73
2023/08/01 05:28:20;;;;;;;21.42;16.58;;;;;;;-140.66;100.00;55571.53;5101784;28;20048;-73
2023/08/01 05:31:06;;;;;;;17.55;15.52;;;;;;;-140.66;100.00;55571.53;5100635;28;20395;-73
2023/08/01 05:33:52;;;;;;;21.17;15.43;;;;;;;-140.66;100.00;55571.53;5102679;28;20557;-73
2023/08/01 05:36:37;;;;;;;19.95;15.63;;;;;;;-140.66;100.00;55571.53;5098163;28;20043;-74
2023/08/01 05:39:23;;;;;;;19.63;15.50;;;;;;;-140.66;100.00;55571.53;5080878;28;20028;-74
2023/08/01 05:42:09;;;;;;;16.40;14.70;;;;;;;-140.66;100.00;55571.53;5095950;28;20051;-74
2023/08/01 05:44:55;;;;;;;17.70;14.50;;;;;;;-140.66;100.00;55571.53;5082673;28;20034;-74
2023/08/01 05:47:41;;;;;;;16.50;14.43;;;;;;;-140.66;100.00;55571.53;5096172;28;20101;-75
2023/08/01 05:50:26;;;;;;;17.80;14.55;;;;;;;-140.66;100.00;55571.53;5096008;28;20111;-74
2023/08/01 05:53:12;;;;;;;18.67;14.75;;;;;;;-140.66;100.00;55571.53;5095576;28;20024;-75
2023/08/01 05:55:58;;;;;;;23.45;15.25;;;;;;;-140.66;100.00;55571.53;5081053;28;20024;-74
2023/08/01 05:58:43;;;;;;;19.48;14.73;;;;;;;-140.66;100.00;55571.53;5095958;28;20024;-74
2023/08/01 06:01:29;;;;;;;17.25;14.93;;;;;;;-140.66;100.00;55571.53;5096087;28;20379;-76
2023/08/01 06:04:15;;;;;;;17.83;14.60;;;;;;;-140.66;100.00;55571.53;5096225;28;20034;-74
2023/08/01 06:07:01;;;;;;;20.77;15.05;;;;;;;-140.66;100.00;55571.53;5081372;28;20051;-73
2023/08/01 06:09:46;;;;;;;22.38;16.10;;;;;;;-140.66;100.00;55571.53;5095738;28;20028;-74
2023/08/01 06:12:32;;;;;;;16.67;14.68;;;;;;;-140.66;100.00;55571.53;5081661;28;20047;-75
2023/08/01 06:15:18;;;;;;;17.08;15.27;;;;;;;-140.66;100.00;55571.53;5094945;28;20088;-75
2023/08/01 06:18:04;;;;;;;17.38;13.63;;;;;;;-140.66;100.00;55571.53;5096307;28;20035;-74
2023/08/01 06:20:49;;;;;;;15.75;13.68;;;;;;;-140.66;100.00;55571.53;5095180;28;20101;-74
2023/08/01 06:23:35;;;;;;;24.92;14.73;;;;;;;-140.66;100.00;55571.53;5095998;28;20042;-74
2023/08/01 06:26:21;;;;;;;32.78;15.95;;;;;;;-140.66;100.00;55571.53;5095447;28;20039;-75
2023/08/01 06:29:07;;;;;;;20.65;14.18;;;;;;;-140.66;100.00;55571.53;5080687;28;20035;-75
2023/08/01 06:31:52;;;;;;;17.77;12.80;;;;;;;-140.66;100.00;55571.53;5095339;28;20020;-75
2023/08/01 06:34:38;;;;;;;20.50;13.40;;;;;;;-140.66;100.00;55571.53;5096319;28;20521;-75
2023/08/01 06:37:24;;;;;;;19.70;16.05;;;;;;;-140.66;100.00;55571.53;5098820;28;20039;-75
2023/08/01 06:40:10;;;;;;;18.73;15.50;;;;;;;-140.66;100.00;55571.53;5096184;28;20111;-76
2023/08/01 06:42:56;;;;;;;20.80;15.68;;;;;;;-140.66;100.00;55571.53;5095512;28;20060;-76
2023/08/01 06:45:41;;;;;;;15.25;12.85;;;;;;;-140.66;100.00;55571.53;5095301;28;20035;-75
2023/08/01 06:48:27;;;;;;;16.88;14.60;;;;;;;-140.66;100.00;55571.53;5080119;28;20522;-76
2023/08/01 06:51:13;;;;;;;13.95;12.45;;;;;;;-140.66;100.00;55571.53;5095655;28;20040;-75
2023/08/01 06:53:58;;;;;;;17.33;14.68;;;;;;;-140.66;100.00;55571.53;5094597;28;20020;-74
2023/08/01 06:56:47;;;;;;;16.95;13.77;;;;;;;-140.66;100.00;55571.53;5080260;28;20028;-76
2023/08/01 06:59:33;;;;;;;17.90;14.02;;;;;;;-140.66;100.00;55571.53;5080501;28;20031;-75
2023/08/01 07:02:19;;;;;;;19.08;15.43;;;;;;;-140.66;100.00;55571.53;5095169;28;20485;-74
2023/08/01 07:05:05;;;;;;;16.77;14.75;;;;;;;-140.66;100.00;55571.53;5080057;28;20032;-74
2023/08/01 07:07:50;;;;;;;17.63;14.10;;;;;;;-140.66;100.00;55571.53;5094098;28;20024;-73
2023/08/01 07:10:36;;;;;;;18.85;14.40;;;;;;;-140.66;100.00;55571.53;5094725;28;20107;-75
2023/08/01 07:13:22;;;;;;;14.13;12.63;;;;;;;-140.66;100.00;55571.53;5095482;28;20460;-75
2023/08/01 07:16:08;;;;;;;16.50;14.05;;;;;;;-140.66;100.00;55571.53;5094292;28;20508;-73
2023/08/01 07:18:55;;;;;;;14.63;12.35;;;;;;;-140.66;100.00;55571.53;5093952;28;20040;-74
2023/08/01 07:21:41;;;;;;;16.30;11.63;;;;;;;-140.66;100.00;55571.53;5093828;28;20364;-74
2023/08/01 07:24:27;;;;;;;14.95;13.07;;;;;;;-140.66;100.00;55571.53;5080033;28;20035;-75
2023/08/01 07:27:12;;;;;;;15.25;11.05;;;;;;;-140.66;100.00;55571.53;5093957;28;20063;-74
2023/08/01 07:29:58;;;;;;;15.23;11.35;;;;;;;-140.66;100.00;55571.53;5079359;28;20024;-75
2023/08/01 07:32:44;;;;;;;16.95;11.50;;;;;;;-140.66;100.00;55571.53;5094543;28;20020;-74
2023/08/01 07:35:29;;;;;;;13.25;10.80;;;;;;;-140.66;100.00;55571.53;5094770;28;20028;-75
2023/08/01 07:38:15;;;;;;;15.27;10.85;;;;;;;-140.66;100.00;55571.53;5094198;28;20023;-75
2023/08/01 07:41:07;;;;;;;11.93;10.73;;;;;;;-140.66;100.00;55571.53;5093436;28;20024;-74
2023/08/01 07:43:52;;;;;;;14.50;11.90;;;;;;;-140.66;100.00;55571.53;5078633;28;20113;-75
2023/08/01 07:46:38;;;;;;;13.07;11.30;;;;;;;-140.66;100.00;55571.53;5078878;28;20062;-75
2023/08/01 07:49:24;;;;;;;21.08;12.00;;;;;;;-140.66;100.00;55571.53;5097625;28;20036;-75
2023/08/01 07:52:10;;;;;;;13.82;11.70;;;;;;;-140.66;100.00;55571.53;5084018;28;20170;-74
2023/08/01 07:54:57;;;;;;;13.40;11.10;;;;;;;-140.66;100.00;55571.53;5098653;28;20084;-74
2023/08/01 07:57:43;;;;;;;15.02;11.38;;;;;;;-140.66;100.00;55571.53;5098556;28;20036;-74
2023/08/01 08:00:28;;;;;;;14.02;10.68;;;;;;;-140.66;100.00;55571.53;5097604;28;20341;-75
2023/08/01 08:03:14;;;;;;;13.57;10.15;;;;;;;-140.66;100.00;55571.53;5098680;28;20027;-74
2023/08/01 08:06:00;;;;;;;11.60;10.38;;;;;;;-140.66;100.00;55571.53;5099060;28;20031;-73
2023/08/01 08:08:46;;;;;;;12.23;9.23;;;;;;;-140.66;100.00;55571.53;5098335;28;20470;-74
2023/08/01 08:11:33;;;;;;;15.93;9.95;;;;;;;-140.66;100.00;55571.53;5097945;28;20032;-74
2023/08/01 08:14:21;;;;;;;15.65;10.25;;;;;;;-140.66;100.00;55571.53;5098840;28;20032;-74
2023/08/01 08:17:07;;;;;;;21.55;10.25;;;;;;;-140.66;100.00;55571.53;5097679;28;20055;-75
2023/08/01 08:19:52;;;;;;;14.35;9.40;;;;;;;-140.66;100.00;55571.53;5097609;28;20048;-73
2023/08/01 08:22:38;;;;;;;14.50;9.55;;;;;;;-140.66;100.00;55571.53;5098142;28;20055;-73
2023/08/01 08:25:24;;;;;;;11.82;8.95;;;;;;;-140.66;100.00;55571.53;5097574;28;20517;-73
2023/08/01 08:28:11;;;;;;;13.57;9.88;;;;;;;-140.66;100.00;55571.53;5097748;28;20028;-73
2023/08/01 08:30:57;;;;;;;13.07;9.68;;;;;;;-140.66;100.00;55571.53;5098096;28;20031;-73
2023/08/01 08:33:42;;;;;;;16.85;10.48;;;;;;;-140.66;100.00;55571.53;5083942;28;20081;-74
2023/08/01 08:36:28;;;;;;;16.13;9.70;;;;;;;-140.66;100.00;55571.53;5096787;28;20028;-75
2023/08/01 08:39:14;;;;;;;15.57;9.32;;;;;;;-140.66;100.00;55571.53;5097738;28;20545;-74
2023/08/01 08:42:00;;;;;;;12.35;9.57;;;;;;;-140.66;100.00;55571.53;5096837;28;20521;-74
2023/08/01 08:44:50;;;;;;;14.35;9.15;;;;;;;-140.66;100.00;55571.53;5097261;28;20024;-75
2023/08/01 08:47:38;;;;;;;13.35;8.88;;;;;;;-140.66;100.00;55571.53;5084435;28;20024;-74
2023/08/01 08:50:25;;;;;;;21.00;10.30;;;;;;;-140.66;100.00;55571.53;5084084;28;20035;-74
2023/08/01 08:53:12;;;;;;;13.82;9.52;;;;;;;-140.66;100.00;55571.53;5100159;28;20062;-74
2023/08/01 08:56:00;;;;;;;10.15;8.13;;;;;;;-140.66;100.00;55571.53;5108837;28;20037;-75
2023/08/01 08:58:47;;;;;;;12.55;8.65;;;;;;;-140.66;100.00;55571.53;5097316;28;20024;-75
2023/08/01 09:01:34;;;;;;;14.75;8.10;;;;;;;-140.66;100.00;55571.53;5080864;28;20368;-74
2023/08/01 09:04:19;;;;;;;9.63;7.63;;;;;;;-140.66;100.00;55571.53;5097896;28;20475;-74
2023/08/01 09:07:11;;;;;;;11.88;8.30;;;;;;;-140.66;100.00;55571.53;5097426;28;20043;-74
2023/08/01 09:09:56;;;;;;;10.25;7.72;;;;;;;-140.66;100.00;55571.53;5083160;28;20024;-75
2023/08/01 09:12:42;;;;;;;18.08;11.20;;;;;;;-140.66;100.00;55571.53;5103826;28;20024;-73
2023/08/01 09:15:28;;;;;;;11.13;7.93;;;;;;;-140.66;100.00;55571.53;5104694;28;20024;-74
2023/08/01 09:18:14;;;;;;;11.82;7.38;;;;;;;-140.66;100.00;55571.53;5098869;28;20417;-76
2023/08/01 09:21:02;;;;;;;10.63;7.47;;;;;;;-140.66;100.00;55571.53;5097822;28;20049;-75
2023/08/01 09:23:48;;;;;;;13.20;7.55;;;;;;;-140.66;100.00;55571.53;5097157;28;20024;-74
2023/08/01 09:26:34;;;;;;;20.65;8.00;;;;;;;-140.66;100.00;55571.53;5097087;28;20028;-74
2023/08/01 09:29:20;;;;;;;15.27;7.70;;;;;;;-140.66;100.00;55571.53;5084867;28;20352;-75
2023/08/01 09:32:16;;;;;;;12.55;7.57;;;;;;;-140.66;100.00;55571.53;5099545;28;20027;-74
2023/08/01 09:35:03;;;;;;;10.93;7.55;;;;;;;-140.66;100.00;55571.53;5084461;28;20098;-75
2023/08/01 09:37:49;;;;;;;14.32;7.75;;;;;;;-140.66;100.00;55571.53;5084573;28;20043;-74
2023/08/01 09:40:39;;;;;;;8.00;7.00;;;;;;;-140.66;100.00;55571.53;5097508;28;20024;-75
2023/08/01 09:43:34;;;;;;;9.55;7.28;;;;;;;-140.66;100.00;55571.53;5097240;28;20032;-75
2023/08/01 09:46:20;;;;;;;10.45;7.25;;;;;;;-140.66;100.00;55571.53;5096739;28;20028;-74
2023/08/01 09:49:12;;;;;;;9.13;7.10;;;;;;;-140.66;100.00;55571.53;5096106;28;20062;-73
2023/08/01 09:51:59;;;;;;;10.57;7.20;;;;;;;-140.66;100.00;55571.53;5096780;28;20027;-75
2023/08/01 09:54:44;;;;;;;9.65;7.07;;;;;;;-140.66;100.00;55571.53;5096225;28;20024;-74
2023/08/01 09:57:31;;;;;;;10.90;7.03;;;;;;;-140.66;100.00;55571.53;5096293;28;20024;-75
2023/08/01 10:00:16;;;;;;;10.43;7.07;;;;;;;-140.66;100.00;55571.53;5079693;28;20028;-75
2023/08/01 10:03:03;;;;;;;12.90;6.80;;;;;;;-140.66;100.00;55571.53;5096195;28;20034;-75
2023/08/01 10:05:53;;;;;;;9.68;7.05;;;;;;;-140.66;100.00;55571.53;5067994;28;20050;-75
2023/08/01 10:08:39;;;;;;;8.93;7.10;;;;;;;-140.66;100.00;55571.53;5096527;28;20107;-75
2023/08/01 10:11:27;;;;;;;7.30;6.60;;;;;;;-140.66;100.00;55571.53;5081123;28;20046;-75
2023/08/01 10:14:14;;;;;;;8.95;6.95;;;;;;;-140.66;100.00;55571.53;5096337;28;20474;-74
2023/08/01 10:17:02;;;;;;;11.23;7.25;;;;;;;-140.66;100.00;55571.53;5096701;28;20024;-75
2023/08/01 10:19:49;;;;;;;8.82;6.90;;;;;;;-140.66;100.00;55571.53;5082288;28;20044;-74
2023/08/01 10:22:35;;;;;;;7.88;7.07;;;;;;;-140.66;100.00;55571.53;5096907;28;20444;-74
2023/08/01 10:25:22;;;;;;;8.27;6.80;;;;;;;-140.66;100.00;55571.53;5082458;28;20028;-75
2023/08/01 10:28:13;;;;;;;8.15;6.80;;;;;;;-140.66;100.00;55571.53;5082378;28;20453;-74
2023/08/01 10:31:13;;;;;;;7.15;6.43;;;;;;;-140.66;100.00;55571.53;5082218;28;20367;-76
2023/08/01 10:34:14;;;;;;;9.70;7.88;;;;;;;-140.66;100.00;55571.53;5096776;28;20364;-74
2023/08/01 10:37:01;;;;;;;45.50;8.18;;;;;;;-140.66;100.00;55571.53;5096946;28;20040;-74
2023/08/01 10:39:56;;;;;;;7.57;6.60;;;;;;;-140.66;100.00;55571.53;5095299;28;20031;-74
2023/08/01 10:42:44;;;;;;;8.18;6.40;;;;;;;-140.66;100.00;55571.53;5081362;28;20115;-74
2023/08/01 10:45:30;;;;;;;8.23;6.97;;;;;;;-140.66;100.00;55571.53;5080492;28;20020;-75
2023/08/01 10:48:15;;;;;;;10.13;6.65;;;;;;;-140.66;100.00;55571.53;5080243;28;20020;-74
2023/08/01 10:51:04;;;;;;;8.27;6.78;;;;;;;-140.66;100.00;55571.53;5095590;28;20035;-74
2023/08/01 10:53:50;;;;;;;7.60;6.80;;;;;;;-140.66;100.00;55571.53;5080874;28;20059;-75
2023/08/01 10:56:36;;;;;;;6.70;6.10;;;;;;;-140.66;100.00;55571.53;5095254;28;20028;-74
2023/08/01 10:59:22;;;;;;;7.20;6.50;;;;;;;-140.66;100.00;55571.53;5094852;28;20071;-75
2023/08/01 11:02:08;;;;;;;10.20;7.00;;;;;;;-140.66;100.00;55571.53;5095334;28;20034;-75
2023/08/01 11:05:03;;;;;;;8.30;6.75;;;;;;;-140.66;100.00;55571.53;5094863;28;20031;-75
2023/08/01 11:07:59;;;;;;;7.97;6.68;;;;;;;-140.66;100.00;55571.53;5096620;27;20024;-74
2023/08/01 11:10:50;;;;;;;7.03;6.32;;;;;;;-140.66;100.00;55571.53;5080480;28;20024;-74
2023/08/01 11:13:36;;;;;;;37.20;8.18;;;;;;;-140.66;100.00;55571.53;5094732;28;20031;-74
2023/08/01 11:16:22;;;;;;;8.02;6.32;;;;;;;-140.66;100.00;55571.53;5094651;28;20032;-74
2023/08/01 11:19:24;;;;;;;7.43;5.82;;;;;;;-140.66;100.00;55571.53;5094454;28;20076;-74
2023/08/01 11:22:10;;;;;;;6.50;5.90;;;;;;;-140.66;100.00;55571.53;5099765;28;20028;-74
2023/08/01 11:24:56;;;;;;;8.25;6.13;;;;;;;-140.66;100.00;55571.53;5085317;28;20032;-74
2023/08/01 11:27:42;;;;;;;8.27;6.50;;;;;;;-140.66;100.00;55571.53;5099625;28;20111;-74
2023/08/01 11:30:35;;;;;;;7.60;6.32;;;;;;;-140.66;100.00;55571.53;5100792;28;20020;-74
2023/08/01 11:33:23;;;;;;;6.97;6.28;;;;;;;-140.66;100.00;55571.53;5099146;28;20032;-75
2023/08/01 11:36:09;;;;;;;6.75;6.03;;;;;;;-140.66;100.00;55571.53;5096633;28;20024;-74
2023/08/01 11:38:59;;;;;;;6.47;5.88;;;;;;;-140.66;100.00;55571.53;5094440;28;20436;-75
2023/08/01 11:41:45;;;;;;;7.88;6.18;;;;;;;-140.66;100.00;55571.53;5094867;28;20035;-74
2023/08/01 11:44:31;;;;;;;7.15;6.40;;;;;;;-140.66;100.00;55571.53;5095009;28;20398;-75
2023/08/01 11:47:18;;;;;;;8.30;6.45;;;;;;;-140.66;100.00;55571.53;5095307;28;20440;-75
2023/08/01 11:50:05;;;;;;;9.38;6.10;;;;;;;-140.66;100.00;55571.53;5100564;28;20107;-73
2023/08/01 11:52:52;;;;;;;10.45;6.47;;;;;;;-140.66;100.00;55571.53;5104212;28;20016;-74
2023/08/01 11:55:38;;;;;;;11.95;6.50;;;;;;;-140.66;100.00;55571.53;5080422;28;20027;-74
2023/08/01 11:58:30;;;;;;;10.20;7.25;;;;;;;-140.66;100.00;55571.53;5094485;28;20024;-74
2023/08/01 12:01:16;;;;;;;7.38;6.50;;;;;;;-140.66;100.00;55571.53;5078988;28;20032;-74
2023/08/01 12:04:02;;;;;;;7.65;6.38;;;;;;;-140.66;100.00;55571.53;5095036;28;20524;-75
2023/08/01 12:06:48;;;;;;;6.90;6.30;;;;;;;-140.66;100.00;55571.53;5080177;28;20089;-74
2023/08/01 12:09:33;;;;;;;8.73;6.20;;;;;;;-140.66;100.00;55571.53;5085206;28;20066;-74
2023/08/01 12:12:19;;;;;;;11.02;6.38;;;;;;;-140.66;100.00;55571.53;5099773;28;20104;-74
2023/08/01 12:15:05;;;;;;;12.77;5.95;;;;;;;-140.66;100.00;55571.53;5094231;28;20039;-74
2023/08/01 12:17:51;;;;;;;7.63;6.05;;;;;;;-140.66;100.00;55571.53;5079686;28;20203;-74
2023/08/01 12:20:37;;;;;;;8.23;7.30;;;;;;;-140.66;100.00;55571.53;5093871;28;20044;-74
2023/08/01 12:23:22;;;;;;;7.32;6.32;;;;;;;-140.66;100.00;55571.53;5093337;28;20444;-74
2023/08/01 12:26:08;;;;;;;8.75;6.72;;;;;;;-140.66;100.00;55571.53;5093305;28;20028;-75